createdAt,value
2022-12-28T00:02:15.110Z,1.40
2022-12-28T00:04:42.776Z,1.40
2022-12-28T00:07:09.680Z,1.40
2022-12-28T00:09:37.347Z,1.30
2022-12-28T00:12:07.552Z,1.30
2022-12-28T00:14:35.131Z,1.30
2022-12-28T00:17:02.928Z,1.30
2022-12-28T00:19:30.536Z,1.20
2022-12-28T00:21:59.752Z,1.20
2022-12-28T00:24:29.706Z,1.20
2022-12-28T00:26:57.437Z,1.20
2022-12-28T00:29:25.042Z,1.20
2022-12-28T00:31:52.663Z,1.20
2022-12-28T00:34:21.155Z,1.20
2022-12-28T00:37:09.059Z,1.20
2022-12-28T00:39:42.380Z,1.20
2022-12-28T00:42:10.369Z,1.20
2022-12-28T00:44:37.379Z,1.10
2022-12-28T00:47:08.619Z,1.10
2022-12-28T00:49:36.383Z,1.10
2022-12-28T00:52:04.631Z,1.10
2022-12-28T00:54:32.972Z,1.10
2022-12-28T00:57:01.496Z,1.00
2022-12-28T00:59:31.832Z,1.00
2022-12-28T01:01:59.552Z,1.10
2022-12-28T01:04:28.081Z,1.10
2022-12-28T01:06:54.991Z,1.00
2022-12-28T01:09:23.319Z,1.00
2022-12-28T01:11:53.517Z,0.90
2022-12-28T01:14:22.772Z,0.90
2022-12-28T01:16:50.233Z,1.00
2022-12-28T01:19:24.106Z,1.00
2022-12-28T01:21:52.562Z,1.00
2022-12-28T01:24:20.366Z,1.00
2022-12-28T01:26:47.992Z,0.90
2022-12-28T01:29:16.656Z,0.90
2022-12-28T01:31:43.632Z,1.00
2022-12-28T01:34:12.027Z,1.00
2022-12-28T01:36:39.870Z,0.90
2022-12-28T01:39:08.363Z,0.90
2022-12-28T01:41:38.202Z,0.90
2022-12-28T01:44:05.174Z,0.80
2022-12-28T01:46:37.123Z,0.80
2022-12-28T01:49:10.814Z,0.80
2022-12-28T01:52:06.157Z,0.80
2022-12-28T01:54:40.253Z,0.80
2022-12-28T01:57:08.074Z,0.70
2022-12-28T01:59:41.882Z,0.80
2022-12-28T02:02:12.424Z,0.70
2022-12-28T02:04:41.002Z,0.70
2022-12-28T02:07:09.273Z,0.70
2022-12-28T02:09:42.376Z,0.70
2022-12-28T02:12:15.743Z,0.70
2022-12-28T02:14:44.451Z,0.60
2022-12-28T02:17:13.648Z,0.70
2022-12-28T02:19:46.503Z,0.60
2022-12-28T02:22:36.549Z,0.60
2022-12-28T02:25:54.278Z,0.60
2022-12-28T02:28:47.202Z,0.60
2022-12-28T02:31:43.942Z,0.60
2022-12-28T02:34:25.288Z,0.60
2022-12-28T02:37:02.409Z,0.60
2022-12-28T02:39:39.989Z,0.60
2022-12-28T02:42:09.871Z,0.60
2022-12-28T02:44:56.987Z,0.60
2022-12-28T02:47:44.079Z,0.60
2022-12-28T02:50:16.150Z,0.60
2022-12-28T02:53:12.807Z,0.60
2022-12-28T02:56:07.667Z,0.50
2022-12-28T02:59:15.759Z,0.50
2022-12-28T03:02:07.993Z,0.60
2022-12-28T03:04:46.746Z,0.60
2022-12-28T03:07:53.845Z,0.60
2022-12-28T03:10:30.939Z,0.60
2022-12-28T03:13:33.430Z,0.50
2022-12-28T03:16:08.820Z,0.50
2022-12-28T03:18:58.621Z,0.50
2022-12-28T03:21:47.031Z,0.50
2022-12-28T03:24:36.350Z,0.50
2022-12-28T03:27:29.261Z,0.50
2022-12-28T03:30:26.848Z,0.50
2022-12-28T03:32:54.937Z,0.50
2022-12-28T03:35:28.306Z,0.50
2022-12-28T03:38:02.721Z,0.50
2022-12-28T03:40:45.310Z,0.50
2022-12-28T03:43:42.522Z,0.50
2022-12-28T03:46:20.302Z,0.50
2022-12-28T03:48:49.157Z,0.40
2022-12-28T03:51:22.660Z,0.40
2022-12-28T03:53:52.506Z,0.40
2022-12-28T03:56:24.715Z,0.30
2022-12-28T03:58:53.521Z,0.30
2022-12-28T04:01:21.588Z,0.30
2022-12-28T04:03:49.716Z,0.40
2022-12-28T04:06:20.019Z,0.40
2022-12-28T04:08:48.462Z,0.30
2022-12-28T04:11:17.517Z,0.20
2022-12-28T04:13:46.507Z,0.20
2022-12-28T04:16:15.282Z,0.20
2022-12-28T04:18:43.963Z,0.20
2022-12-28T04:21:12.552Z,0.20
2022-12-28T04:23:39.632Z,0.20
2022-12-28T04:26:13.575Z,0.20
2022-12-28T04:28:41.490Z,0.20
2022-12-28T04:31:12.769Z,0.20
2022-12-28T04:33:41.497Z,0.30
2022-12-28T04:36:12.860Z,0.20
2022-12-28T04:38:41.913Z,0.20
2022-12-28T04:41:11.343Z,0.20
2022-12-28T04:43:40.224Z,0.20
2022-12-28T04:46:12.504Z,0.10
2022-12-28T04:48:41.074Z,0.20
2022-12-28T04:51:15.575Z,0.10
2022-12-28T04:53:45.078Z,0.20
2022-12-28T04:56:16.663Z,0.10
2022-12-28T04:58:48.298Z,0.10
2022-12-28T05:01:18.841Z,0.00
2022-12-28T05:03:54.937Z,0.00
2022-12-28T05:06:25.740Z,0.00
2022-12-28T05:08:53.454Z,0.00
2022-12-28T05:11:29.093Z,0.00
2022-12-28T05:13:57.673Z,0.00
2022-12-28T05:16:26.981Z,0.00
2022-12-28T05:18:56.516Z,-0.10
2022-12-28T05:21:27.774Z,-0.10
2022-12-28T05:23:56.677Z,-0.10
2022-12-28T05:26:27.425Z,-0.10
2022-12-28T05:28:56.421Z,-0.10
2022-12-28T05:31:24.678Z,-0.10
2022-12-28T05:33:54.015Z,-0.20
2022-12-28T05:36:25.881Z,-0.20
2022-12-28T05:38:54.759Z,-0.20
2022-12-28T05:41:28.010Z,-0.20
2022-12-28T05:43:56.896Z,-0.20
2022-12-28T05:46:28.891Z,-0.10
2022-12-28T05:48:59.929Z,-0.10
2022-12-28T05:51:30.222Z,-0.10
2022-12-28T05:53:59.943Z,-0.20
2022-12-28T05:56:29.419Z,-0.10
2022-12-28T05:59:01.178Z,-0.10
2022-12-28T06:01:35.135Z,-0.10
2022-12-28T06:04:06.325Z,-0.10
2022-12-28T06:06:34.952Z,-0.10
2022-12-28T06:09:04.820Z,-0.20
2022-12-28T06:11:33.894Z,-0.20
2022-12-28T06:14:03.694Z,-0.20
2022-12-28T06:16:34.496Z,-0.20
2022-12-28T06:19:10.539Z,-0.30
2022-12-28T06:21:41.819Z,-0.30
2022-12-28T06:24:10.689Z,-0.30
2022-12-28T06:26:40.836Z,-0.30
2022-12-28T06:29:08.072Z,-0.30
2022-12-28T06:31:37.750Z,-0.20
2022-12-28T06:34:08.768Z,-0.30
2022-12-28T06:36:41.684Z,-0.30
2022-12-28T06:39:10.954Z,-0.30
2022-12-28T06:41:38.417Z,-0.30
2022-12-28T06:44:10.222Z,-0.30
2022-12-28T06:46:37.465Z,-0.20
2022-12-28T06:49:05.338Z,-0.30
2022-12-28T06:51:38.753Z,-0.30
2022-12-28T06:54:06.380Z,-0.30
2022-12-28T06:56:35.488Z,-0.30
2022-12-28T06:59:04.945Z,-0.30
2022-12-28T07:01:38.717Z,-0.30
2022-12-28T07:04:09.482Z,-0.30
2022-12-28T07:06:43.646Z,-0.30
2022-12-28T07:09:14.037Z,-0.30
2022-12-28T07:11:43.347Z,-0.30
2022-12-28T07:14:13.551Z,-0.30
2022-12-28T07:16:41.859Z,-0.30
2022-12-28T07:19:10.479Z,-0.30
2022-12-28T07:21:39.232Z,-0.30
2022-12-28T07:24:08.150Z,-0.30
2022-12-28T07:26:37.241Z,-0.30
2022-12-28T07:29:07.031Z,-0.30
2022-12-28T07:31:44.254Z,-0.30
2022-12-28T07:34:15.259Z,-0.30
2022-12-28T07:36:43.990Z,-0.30
2022-12-28T07:39:12.874Z,-0.40
2022-12-28T07:41:40.762Z,-0.40
2022-12-28T07:44:09.073Z,-0.40
2022-12-28T07:46:38.059Z,-0.40
2022-12-28T07:49:07.024Z,-0.40
2022-12-28T07:51:37.452Z,-0.40
2022-12-28T07:54:06.243Z,-0.40
2022-12-28T07:59:03.402Z,-0.40
2022-12-28T08:01:33.379Z,-0.40
2022-12-28T08:04:04.076Z,-0.40
2022-12-28T08:06:35.636Z,-0.30
2022-12-28T08:09:07.660Z,-0.30
2022-12-28T08:11:38.720Z,-0.40
2022-12-28T08:14:08.614Z,-0.30
2022-12-28T08:16:42.862Z,-0.40
2022-12-28T08:19:10.999Z,-0.40
2022-12-28T08:21:44.302Z,-0.40
2022-12-28T08:24:18.199Z,-0.30
2022-12-28T08:26:48.305Z,-0.30
2022-12-28T08:29:19.370Z,-0.30
2022-12-28T08:31:47.636Z,-0.40
2022-12-28T08:34:27.319Z,-0.30
2022-12-28T08:36:56.363Z,-0.30
2022-12-28T08:39:24.005Z,-0.30
2022-12-28T08:41:50.926Z,-0.30
2022-12-28T08:44:17.843Z,-0.30
2022-12-28T08:46:45.699Z,-0.40
2022-12-28T08:49:16.029Z,-0.40
2022-12-28T08:51:43.753Z,-0.40
2022-12-28T08:54:13.790Z,-0.40
2022-12-28T08:56:42.786Z,-0.40
2022-12-28T08:59:16.601Z,-0.40
2022-12-28T09:01:45.500Z,-0.40
2022-12-28T09:04:19.831Z,-0.30
2022-12-28T09:06:49.888Z,-0.40
2022-12-28T09:09:22.114Z,-0.40
2022-12-28T09:11:50.513Z,-0.40
2022-12-28T09:14:23.621Z,-0.40
2022-12-28T09:16:53.879Z,-0.40
2022-12-28T09:19:22.976Z,-0.40
2022-12-28T09:21:52.556Z,-0.50
2022-12-28T09:24:20.440Z,-0.50
2022-12-28T09:26:48.767Z,-0.50
2022-12-28T09:29:15.657Z,-0.50
2022-12-28T09:31:45.228Z,-0.60
2022-12-28T09:37:02.305Z,-0.50
2022-12-28T09:39:30.318Z,-0.50
2022-12-28T09:42:17.508Z,-0.50
2022-12-28T09:44:59.605Z,-0.50
2022-12-28T09:47:45.896Z,-0.40
2022-12-28T09:50:21.842Z,-0.40
2022-12-28T09:53:12.622Z,-0.50
2022-12-28T09:55:45.009Z,-0.50
2022-12-28T09:58:16.678Z,-0.40
2022-12-28T10:00:48.765Z,-0.40
2022-12-28T10:03:26.847Z,-0.40
2022-12-28T10:05:57.427Z,-0.40
2022-12-28T10:08:26.405Z,-0.40
2022-12-28T10:10:59.166Z,-0.40
2022-12-28T10:16:21.166Z,-0.40
2022-12-28T10:18:49.489Z,-0.40
2022-12-28T10:21:28.401Z,-0.40
2022-12-28T10:26:48.131Z,-0.30
2022-12-28T10:29:21.601Z,-0.30
2022-12-28T10:32:04.328Z,-0.30
2022-12-28T10:34:35.833Z,-0.30
2022-12-28T10:37:17.792Z,-0.30
2022-12-28T10:39:56.942Z,-0.20
2022-12-28T10:42:41.124Z,-0.20
2022-12-28T10:45:18.711Z,-0.10
2022-12-28T10:47:52.957Z,-0.10
2022-12-28T10:50:40.140Z,-0.10
2022-12-28T10:53:20.145Z,-0.10
2022-12-28T10:55:48.933Z,-0.10
2022-12-28T10:58:29.430Z,-0.10
2022-12-28T11:01:12.587Z,0.00
2022-12-28T11:03:44.180Z,0.00
2022-12-28T11:06:24.227Z,0.10
2022-12-28T11:09:12.760Z,0.10
2022-12-28T11:11:44.164Z,0.10
2022-12-28T11:14:23.556Z,0.10
2022-12-28T11:16:50.562Z,0.10
2022-12-28T11:19:18.253Z,0.10
2022-12-28T11:21:46.420Z,0.10
2022-12-28T11:24:16.488Z,0.10
2022-12-28T11:26:48.043Z,0.20
2022-12-28T11:29:17.952Z,0.20
2022-12-28T11:32:12.616Z,0.20
2022-12-28T11:34:40.751Z,0.20
2022-12-28T11:37:14.741Z,0.20
2022-12-28T11:39:48.168Z,0.30
2022-12-28T11:42:41.291Z,0.40
2022-12-28T11:45:14.936Z,0.40
2022-12-28T11:47:42.845Z,0.40
2022-12-28T11:50:36.789Z,0.40
2022-12-28T11:53:31.447Z,0.40
2022-12-28T11:56:10.045Z,0.40
2022-12-28T11:58:40.676Z,0.50
2022-12-28T12:01:10.316Z,0.40
2022-12-28T12:03:57.241Z,0.50
2022-12-28T12:06:48.106Z,0.50
2022-12-28T12:09:30.783Z,0.50
2022-12-28T12:12:03.758Z,0.50
2022-12-28T12:14:42.429Z,0.60
2022-12-28T12:18:01.277Z,0.60
2022-12-28T12:20:54.695Z,0.60
2022-12-28T12:23:26.040Z,0.70
2022-12-28T12:25:58.208Z,0.70
2022-12-28T12:28:35.078Z,0.70
2022-12-28T12:31:09.247Z,0.70
2022-12-28T12:33:44.729Z,0.80
2022-12-28T12:36:39.659Z,0.80
2022-12-28T12:39:33.805Z,0.80
2022-12-28T12:42:39.366Z,0.80
2022-12-28T12:45:13.882Z,0.90
2022-12-28T12:48:04.903Z,0.90
2022-12-28T12:50:33.228Z,0.90
2022-12-28T12:53:34.043Z,0.90
2022-12-28T12:56:13.160Z,0.90
2022-12-28T12:59:03.118Z,1.00
2022-12-28T13:01:55.350Z,1.00
2022-12-28T13:04:27.334Z,1.00
2022-12-28T13:07:01.717Z,1.00
2022-12-28T13:09:32.732Z,1.00
2022-12-28T13:12:02.609Z,1.00
2022-12-28T13:14:33.031Z,1.00
2022-12-28T13:17:01.427Z,1.00
2022-12-28T13:19:30.088Z,1.00
2022-12-28T13:22:00.386Z,1.00
2022-12-28T13:24:29.891Z,1.00
2022-12-28T13:27:00.072Z,1.00
2022-12-28T13:29:38.549Z,1.10
2022-12-28T13:32:31.431Z,1.10
2022-12-28T13:35:20.769Z,1.10
2022-12-28T13:38:12.081Z,1.10
2022-12-28T13:40:49.193Z,1.10
2022-12-28T13:43:57.186Z,1.10
2022-12-28T13:46:26.097Z,1.10
2022-12-28T13:48:58.074Z,1.20
2022-12-28T13:51:26.701Z,1.10
2022-12-28T13:54:00.220Z,1.10
2022-12-28T13:56:29.505Z,1.10
2022-12-28T13:59:06.413Z,1.10
2022-12-28T14:01:39.916Z,1.20
2022-12-28T14:07:03.859Z,1.20
2022-12-28T14:09:30.991Z,1.20
2022-12-28T14:11:58.744Z,1.10
2022-12-28T14:14:28.953Z,1.10
2022-12-28T14:16:57.128Z,1.10
2022-12-28T14:19:27.975Z,1.10
2022-12-28T14:21:55.636Z,1.10
2022-12-28T14:24:24.894Z,1.10
2022-12-28T14:27:00.372Z,1.10
2022-12-28T14:29:32.769Z,1.10
2022-12-28T14:32:02.839Z,1.10
2022-12-28T14:34:36.412Z,1.10
2022-12-28T14:37:05.478Z,1.20
2022-12-28T14:39:37.777Z,1.20
2022-12-28T14:42:16.778Z,1.20
2022-12-28T14:44:45.707Z,1.30
2022-12-28T14:47:35.992Z,1.30
2022-12-28T14:50:25.493Z,1.30
2022-12-28T14:53:08.001Z,1.30
2022-12-28T14:55:57.555Z,1.30
2022-12-28T14:58:31.701Z,1.40
2022-12-28T15:01:06.026Z,1.40
2022-12-28T15:03:58.756Z,1.40
2022-12-28T15:06:28.506Z,1.40
2022-12-28T15:08:59.035Z,1.40
2022-12-28T15:11:29.326Z,1.40
2022-12-28T15:13:58.322Z,1.50
2022-12-28T15:16:27.810Z,1.50
2022-12-28T15:18:56.632Z,1.50
2022-12-28T15:21:24.558Z,1.60
2022-12-28T15:23:55.873Z,1.60
2022-12-28T15:26:24.529Z,1.60
2022-12-28T15:28:51.602Z,1.60
2022-12-28T15:31:20.589Z,1.60
2022-12-28T15:33:48.656Z,1.60
2022-12-28T15:36:20.776Z,1.70
2022-12-28T15:38:51.092Z,1.70
2022-12-28T15:41:37.515Z,1.70
2022-12-28T15:44:04.916Z,1.70
2022-12-28T15:46:32.779Z,1.70
2022-12-28T15:49:04.703Z,1.70
2022-12-28T15:51:31.698Z,1.70
2022-12-28T15:54:01.706Z,1.70
2022-12-28T15:56:33.303Z,1.70
2022-12-28T15:59:02.563Z,1.70
2022-12-28T16:01:31.961Z,1.70
2022-12-28T16:04:02.474Z,1.70
2022-12-28T16:06:37.138Z,1.70
2022-12-28T16:09:08.523Z,1.70
2022-12-28T16:11:37.331Z,1.70
2022-12-28T16:14:07.567Z,1.80
2022-12-28T16:16:38.496Z,1.70
2022-12-28T16:19:09.058Z,1.80
2022-12-28T16:21:38.354Z,1.70
2022-12-28T16:24:09.571Z,1.80
2022-12-28T16:26:38.731Z,1.80
2022-12-28T16:29:06.419Z,1.80
2022-12-28T16:31:38.511Z,1.80
2022-12-28T16:34:11.229Z,1.80
2022-12-28T16:36:39.052Z,1.80
2022-12-28T16:39:08.800Z,1.80
2022-12-28T16:41:37.364Z,1.80
2022-12-28T16:44:09.538Z,1.90
2022-12-28T16:46:38.217Z,1.90
2022-12-28T16:49:11.049Z,1.90
2022-12-28T16:51:45.331Z,1.90
2022-12-28T16:54:17.906Z,2.00
2022-12-28T16:56:48.080Z,2.00
2022-12-28T16:59:19.087Z,2.00
2022-12-28T17:01:48.326Z,2.00
2022-12-28T17:04:15.544Z,2.00
2022-12-28T17:06:44.411Z,2.00
2022-12-28T17:09:14.010Z,2.10
2022-12-28T17:11:42.690Z,2.10
2022-12-28T17:14:11.932Z,2.10
2022-12-28T17:16:41.260Z,2.10
2022-12-28T17:19:08.888Z,2.20
2022-12-28T17:21:38.182Z,2.20
2022-12-28T17:24:06.323Z,2.20
2022-12-28T17:26:33.908Z,2.20
2022-12-28T17:29:04.278Z,2.30
2022-12-28T17:31:33.511Z,2.30
2022-12-28T17:34:03.039Z,2.30
2022-12-28T17:36:31.238Z,2.30
2022-12-28T17:38:58.287Z,2.30
2022-12-28T17:41:27.566Z,2.30
2022-12-28T17:43:58.451Z,2.40
2022-12-28T17:46:29.862Z,2.30
2022-12-28T17:49:00.329Z,2.40
2022-12-28T17:51:29.392Z,2.40
2022-12-28T17:53:57.716Z,2.40
2022-12-28T17:56:26.338Z,2.40
2022-12-28T17:58:59.256Z,2.40
2022-12-28T18:01:26.754Z,2.50
2022-12-28T18:03:56.689Z,2.50
2022-12-28T18:06:25.263Z,2.50
2022-12-28T18:08:52.912Z,2.50
2022-12-28T18:11:20.682Z,2.40
2022-12-28T18:13:49.140Z,2.50
2022-12-28T18:16:20.025Z,2.50
2022-12-28T18:18:47.955Z,2.50
2022-12-28T18:21:21.452Z,2.50
2022-12-28T18:23:52.108Z,2.50
2022-12-28T18:26:26.310Z,2.50
2022-12-28T18:28:57.547Z,2.60
2022-12-28T18:31:26.095Z,2.60
2022-12-28T18:33:53.134Z,2.50
2022-12-28T18:36:20.963Z,2.60
2022-12-28T18:38:49.114Z,2.60
2022-12-28T18:41:18.197Z,2.60
2022-12-28T18:43:45.247Z,2.60
2022-12-28T18:46:14.746Z,2.60
2022-12-28T18:48:42.672Z,2.60
2022-12-28T18:51:14.101Z,2.60
2022-12-28T18:53:42.222Z,2.70
2022-12-28T18:56:16.371Z,2.70
2022-12-28T18:58:44.925Z,2.70
2022-12-28T19:04:10.057Z,2.70
2022-12-28T19:06:39.658Z,2.70
2022-12-28T19:09:08.477Z,2.70
2022-12-28T19:11:37.849Z,2.70
2022-12-28T19:14:07.477Z,2.70
2022-12-28T19:16:35.041Z,2.70
2022-12-28T19:19:03.057Z,2.70
2022-12-28T19:21:33.037Z,2.70
2022-12-28T19:24:12.471Z,2.70
2022-12-28T19:26:39.552Z,2.80
2022-12-28T19:29:08.242Z,2.70
2022-12-28T19:31:38.497Z,2.80
2022-12-28T19:34:06.442Z,2.80
2022-12-28T19:36:34.099Z,2.80
2022-12-28T19:39:01.080Z,2.80
2022-12-28T19:41:28.043Z,2.80
2022-12-28T19:43:55.000Z,2.80
2022-12-28T19:46:30.632Z,2.80
2022-12-28T19:48:58.959Z,2.90
2022-12-28T19:51:31.415Z,2.90
2022-12-28T19:54:00.774Z,2.80
2022-12-28T19:56:30.121Z,2.90
2022-12-28T19:59:05.421Z,2.90
2022-12-28T20:01:34.797Z,2.90
2022-12-28T20:04:08.807Z,2.90
2022-12-28T20:06:41.353Z,2.90
2022-12-28T20:09:10.494Z,2.90
2022-12-28T20:11:38.959Z,2.90
2022-12-28T20:14:08.244Z,2.90
2022-12-28T20:16:36.229Z,3.00
2022-12-28T20:19:09.165Z,3.00
2022-12-28T20:21:38.253Z,3.00
2022-12-28T20:24:06.399Z,3.10
2022-12-28T20:26:35.088Z,3.00
2022-12-28T20:29:05.539Z,3.00
2022-12-28T20:31:33.166Z,3.00
2022-12-28T20:34:01.899Z,3.10
2022-12-28T20:36:31.904Z,3.00
2022-12-28T20:39:00.340Z,3.10
2022-12-28T20:41:49.542Z,3.10
2022-12-28T20:44:31.216Z,3.10
2022-12-28T20:46:59.198Z,3.10
2022-12-28T20:49:27.904Z,3.20
2022-12-28T20:51:58.264Z,3.10
2022-12-28T20:54:26.852Z,3.20
2022-12-28T20:56:56.135Z,3.20
2022-12-28T20:59:25.574Z,3.20
2022-12-28T21:01:53.881Z,3.30
2022-12-28T21:04:24.079Z,3.30
2022-12-28T21:06:53.453Z,3.30
2022-12-28T21:09:21.904Z,3.30
2022-12-28T21:11:49.603Z,3.30
2022-12-28T21:14:17.253Z,3.30
2022-12-28T21:16:44.870Z,3.30
2022-12-28T21:19:12.631Z,3.30
2022-12-28T21:21:39.530Z,3.30
2022-12-28T21:24:07.473Z,3.30
2022-12-28T21:26:35.919Z,3.30
2022-12-28T21:29:05.808Z,3.30
2022-12-28T21:31:33.538Z,3.40
2022-12-28T21:34:01.922Z,3.30
2022-12-28T21:36:31.105Z,3.30
2022-12-28T21:38:59.395Z,3.40
2022-12-28T21:41:47.767Z,3.40
2022-12-28T21:44:21.772Z,3.40
2022-12-28T21:46:50.335Z,3.40
2022-12-28T21:49:18.912Z,3.50
2022-12-28T21:51:48.371Z,3.50
2022-12-28T21:54:19.137Z,3.50
2022-12-28T21:56:52.737Z,3.50
2022-12-28T21:59:21.895Z,3.50
2022-12-28T22:02:10.341Z,3.50
2022-12-28T22:05:02.085Z,3.50
2022-12-28T22:07:30.988Z,3.50
2022-12-28T22:10:17.776Z,3.50
2022-12-28T22:12:46.305Z,3.60
2022-12-28T22:15:35.983Z,3.60
2022-12-28T22:18:37.073Z,3.60
2022-12-28T22:21:07.127Z,3.60
2022-12-28T22:23:35.273Z,3.60
2022-12-28T22:26:04.582Z,3.70
2022-12-28T22:28:33.839Z,3.70
2022-12-28T22:31:06.577Z,3.70
2022-12-28T22:33:34.576Z,3.70
2022-12-28T22:36:16.471Z,3.70
2022-12-28T22:38:45.337Z,3.80
2022-12-28T22:41:15.464Z,3.70
2022-12-28T22:43:51.895Z,3.80
2022-12-28T22:46:21.484Z,3.80
2022-12-28T22:48:49.955Z,3.80
2022-12-28T22:51:17.683Z,3.70
2022-12-28T22:53:46.305Z,3.80
2022-12-28T22:56:20.764Z,3.80
2022-12-28T22:58:49.516Z,3.80
2022-12-28T23:01:20.040Z,3.90
2022-12-28T23:03:49.550Z,3.80
2022-12-28T23:06:20.491Z,3.80
2022-12-28T23:08:49.342Z,3.90
2022-12-28T23:11:36.429Z,3.80
2022-12-28T23:14:25.171Z,3.80
2022-12-28T23:16:53.385Z,3.80
2022-12-28T23:19:39.552Z,3.90
2022-12-28T23:22:30.564Z,3.90
2022-12-28T23:25:16.654Z,3.90
2022-12-28T23:27:44.907Z,3.90
2022-12-28T23:30:19.465Z,4.00
2022-12-28T23:32:50.816Z,3.90
2022-12-28T23:35:20.691Z,3.90
2022-12-28T23:37:48.890Z,3.80
2022-12-28T23:40:19.351Z,3.90
2022-12-28T23:42:47.931Z,3.80
2022-12-28T23:45:18.117Z,3.90
2022-12-28T23:47:48.952Z,3.90
2022-12-28T23:50:17.174Z,3.90
2022-12-28T23:52:45.169Z,3.80
2022-12-28T23:55:12.772Z,3.90
2022-12-28T23:57:41.399Z,3.90
